aviador You're here:

USSS Decoded Metar

SVERDLOVSK in RUSSIA
Report Time2017-10-18 16:30:00
UTC Time2017-10-18 16:51:07
Flight Rules vfr VFR
Wind250° at 8 kt
W.Decomp.*RWY 26: 7.3 kt HW 3.3 kt LCW
W.Rank250° ranks 3
Current wind is below 250° avg. (9.1)
Visibility9999 m
Phenomena:N/A
Clouds:Scattered 030 Hf
Expected CloudBase > 1,600 ft AGL from Temp-Dew spread
CeilingNone
Temp03°C (ISA -10)
Dew Point-1°C (75% RH)
AAT-2.0°C
QNH1003 hPa
Density Alt-82 ft
Elevation764 ft
Report Wrong Elevation
Raw Report
USSS 181630Z 25004MPS 9999 SCT030 03/M01 Q1003 R26R/210060 NOSIG
RMK QFE732/0976=

Extra information for USSS:More info

Metar Taf Metar & Taf Last 4 Metars F.Rules Stats Wind Profile Meteogram Temp Stats Airport Information Weather charts Add Link Nearby VenuesMetar ALERT Operation Metar Decoded Social comments